Time;durP1;ratioP1;P1;durP2;ratioP2;P2;SDS_P1;SDS_P2;PMS_P1;PMS_P2;Temp;Humidity;BMP_temperature;BMP_pressure;BME280_temperature;BME280_humidity;BME280_pressure;Samples;Min_cycle;Max_cycle;Signal;HPM_P1;HPM_P2
2022/05/11 00:09:39;;;;;;;10.90;3.90;;;;;;;11.42;46.91;99513.40;426610;1286;141684;-45
2022/05/11 00:19:44;;;;;;;5.40;4.00;;;;;;;11.31;47.40;99504.82;427120;1285;141397;-47
2022/05/11 00:29:50;;;;;;;4.20;3.10;;;;;;;11.28;47.70;99492.61;428592;1286;141608;-47
2022/05/11 00:39:57;;;;;;;5.10;3.60;;;;;;;11.31;47.55;99492.40;428013;1284;199356;-45
2022/05/11 00:50:10;;;;;;;6.20;3.90;;;;;;;11.45;47.37;99480.98;427426;1285;184002;-44
2022/05/11 01:00:17;;;;;;;11.00;4.20;;;;;;;11.56;47.48;99477.06;426835;1286;142027;-47
2022/05/11 01:10:24;;;;;;;5.90;3.90;;;;;;;11.62;47.51;99473.06;431552;1285;141488;-46
2022/05/11 01:20:34;;;;;;;7.10;4.60;;;;;;;11.69;47.51;99467.88;427705;1285;142167;-50
2022/05/11 01:30:42;;;;;;;8.00;4.00;;;;;;;11.68;47.54;99455.48;425978;1285;142219;-45
2022/05/11 01:40:47;;;;;;;7.20;4.80;;;;;;;11.64;47.78;99441.03;427482;1285;142326;-46
2022/05/11 01:50:54;;;;;;;6.40;4.10;;;;;;;11.59;47.99;99437.02;425663;1286;162563;-46
2022/05/11 02:01:01;;;;;;;11.00;4.40;;;;;;;11.50;48.45;99433.98;432490;1285;142911;-44
2022/05/11 02:11:07;;;;;;;8.20;4.70;;;;;;;11.30;48.91;99424.67;429303;1287;142130;-46
2022/05/11 02:21:12;;;;;;;9.30;5.10;;;;;;;11.06;49.29;99408.27;427519;1285;162092;-46
2022/05/11 02:31:20;;;;;;;8.50;5.40;;;;;;;10.93;49.91;99399.17;430855;1285;146482;-48
2022/05/11 02:41:26;;;;;;;8.10;5.40;;;;;;;10.79;50.39;99390.48;425822;1287;143637;-46
2022/05/11 02:51:32;;;;;;;8.30;5.40;;;;;;;10.70;51.04;99382.52;440964;1285;141257;-47
2022/05/11 03:01:38;;;;;;;10.30;4.90;;;;;;;10.67;51.35;99383.41;437311;1286;142271;-51
2022/05/11 03:11:45;;;;;;;9.60;5.90;;;;;;;10.76;51.63;99384.88;442097;1286;142049;-48
2022/05/11 03:21:52;;;;;;;7.60;5.20;;;;;;;10.90;51.61;99380.27;434480;1287;140739;-49
2022/05/11 03:42:28;;;;;;;8.60;5.60;;;;;;;11.20;51.85;99358.42;428220;1287;193110;-48
2022/05/11 03:52:34;;;;;;;8.20;6.00;;;;;;;11.41;51.76;99354.81;427902;1285;142826;-48
2022/05/11 04:02:40;;;;;;;10.00;5.80;;;;;;;11.91;51.20;99352.34;426737;1287;141511;-47
2022/05/11 04:12:46;;;;;;;10.00;5.80;;;;;;;12.77;50.32;99354.94;426209;1286;141306;-47
2022/05/11 04:22:52;;;;;;;9.40;5.90;;;;;;;14.58;48.56;99354.14;426927;1287;141970;-47
2022/05/11 04:32:58;;;;;;;8.00;5.80;;;;;;;15.69;46.38;99347.68;427254;1287;141081;-48
2022/05/11 04:43:10;;;;;;;12.20;5.40;;;;;;;16.32;45.11;99343.64;427038;1286;141806;-50
2022/05/11 04:53:18;;;;;;;11.90;6.40;;;;;;;16.43;44.72;99342.17;427638;1287;142033;-47
2022/05/11 05:03:24;;;;;;;10.80;5.50;;;;;;;20.18;42.68;99340.42;425204;1285;141688;-49
2022/05/11 05:13:30;;;;;;;15.00;6.80;;;;;;;26.25;35.47;99335.45;427004;1285;141276;-48
2022/05/11 05:23:36;;;;;;;10.10;6.10;;;;;;;27.92;32.49;99331.58;428313;1285;144650;-50
2022/05/11 05:33:42;;;;;;;11.30;5.70;;;;;;;33.44;27.58;99325.34;425500;1287;141248;-49
2022/05/11 05:43:46;;;;;;;;;;;;;;;34.66;24.76;99327.18;427384;1286;141537;-44
2022/05/11 05:53:52;;;;;;;13.10;4.80;;;;;;;38.17;22.28;99334.84;431139;1286;132999;-46
2022/05/11 06:03:58;;;;;;;6.70;4.30;;;;;;;41.99;19.12;99328.20;427661;1285;141181;-63
2022/05/11 06:14:05;;;;;;;6.40;5.00;;;;;;;45.37;16.63;99322.17;434500;1286;141955;-51
2022/05/11 06:24:11;;;;;;;7.80;4.40;;;;;;;46.48;14.80;99326.75;441427;1284;141558;-62
2022/05/11 06:34:17;;;;;;;7.20;4.50;;;;;;;47.20;14.03;99324.77;442205;1285;142206;-60
2022/05/11 06:44:23;;;;;;;10.90;5.70;;;;;;;48.61;13.05;99318.42;442193;1285;142494;-61
2022/05/11 07:04:53;;;;;;;16.90;4.90;;;;;;;48.08;12.19;99301.80;442067;1285;141994;-61
2022/05/11 07:14:59;;;;;;;7.30;3.70;;;;;;;42.73;14.03;99291.94;441309;1284;142432;-64
2022/05/11 07:25:05;;;;;;;27.60;5.30;;;;;;;41.61;15.00;99293.93;442008;1285;143151;-60
2022/05/11 07:35:12;;;;;;;11.00;5.20;;;;;;;37.14;17.12;99291.33;441794;1285;144051;-63
2022/05/11 07:45:19;;;;;;;6.90;3.90;;;;;;;35.01;19.14;99286.95;430390;1286;145653;-61
2022/05/11 07:55:26;;;;;;;6.30;4.10;;;;;;;33.39;21.00;99291.56;442103;1285;142261;-55
2022/05/11 08:05:33;;;;;;;6.10;2.60;;;;;;;35.25;20.67;99280.30;442086;1285;141385;-51
2022/05/11 08:15:42;;;;;;;4.00;3.30;;;;;;;35.10;20.41;99284.20;441412;1285;142177;-50
2022/05/11 08:25:49;;;;;;;5.70;3.40;;;;;;;33.66;21.41;99288.44;430741;1285;140459;-51
2022/05/11 08:35:58;;;;;;;6.50;3.60;;;;;;;32.42;22.57;99286.88;436722;1285;141870;-48
2022/05/11 08:46:15;;;;;;;4.00;3.10;;;;;;;31.90;23.33;99275.00;427784;1285;140462;-57
2022/05/11 08:56:28;;;;;;;28.40;6.10;;;;;;;31.77;23.86;99277.10;426823;1285;141435;-49
2022/05/11 09:06:34;;;;;;;8.60;4.50;;;;;;;31.34;24.56;99274.63;426284;1285;141894;-57
2022/05/11 09:16:42;;;;;;;11.70;4.50;;;;;;;30.99;24.88;99275.09;426539;1285;141276;-56
2022/05/11 09:27:02;;;;;;;6.00;3.90;;;;;;;30.12;25.98;99275.08;425787;1286;141313;-58
2022/05/11 09:37:26;;;;;;;18.20;5.60;;;;;;;30.26;26.37;99273.84;425545;1285;305723;-58
2022/05/11 09:47:34;;;;;;;5.50;4.10;;;;;;;29.93;26.77;99261.70;427455;1285;142345;-51
2022/05/11 09:57:40;;;;;;;6.30;4.20;;;;;;;29.33;27.69;99259.61;427117;1286;141032;-49
2022/05/11 10:07:49;;;;;;;5.90;4.40;;;;;;;29.27;27.78;99255.43;426081;1285;141968;-48
2022/05/11 10:28:30;;;;;;;14.90;6.00;;;;;;;29.12;28.37;99231.36;426208;1285;141619;-57
2022/05/11 10:38:48;;;;;;;10.80;4.90;;;;;;;29.13;28.24;99225.86;425948;1285;142023;-52
2022/05/11 10:49:25;;;;;;;31.00;6.20;;;;;;;29.06;28.13;99216.90;426123;1285;141451;-54
2022/05/11 11:00:01;;;;;;;6.70;3.60;;;;;;;28.94;28.41;99206.51;425792;1285;141178;-55
2022/05/11 11:10:22;;;;;;;7.50;3.70;;;;;;;28.99;27.89;99197.98;427757;1285;139963;-53
2022/05/11 11:20:32;;;;;;;5.90;3.60;;;;;;;29.21;27.68;99187.21;428004;1285;141041;-56
2022/05/11 11:30:39;;;;;;;10.00;3.30;;;;;;;29.37;27.48;99184.27;425904;1285;141061;-52
2022/05/11 11:41:18;;;;;;;4.30;3.40;;;;;;;29.68;27.26;99182.42;426018;1285;141345;-56
2022/05/11 11:51:52;;;;;;;5.20;3.40;;;;;;;29.89;26.69;99172.46;426241;1285;140655;-55
2022/05/11 12:02:05;;;;;;;16.00;4.40;;;;;;;29.85;26.77;99166.04;427071;1285;140625;-57
2022/05/11 12:22:45;;;;;;;4.30;3.70;;;;;;;29.67;26.62;99148.05;427737;1286;140883;-56
2022/05/11 12:32:56;;;;;;;4.80;3.40;;;;;;;29.37;26.85;99139.27;425758;1285;141218;-54
2022/05/11 12:43:09;;;;;;;5.40;4.00;;;;;;;29.26;27.29;99133.11;427491;1285;212860;-54
2022/05/11 12:53:31;;;;;;;5.00;4.00;;;;;;;28.88;27.85;99127.73;427160;1285;143098;-54
2022/05/11 13:03:39;;;;;;;5.80;4.20;;;;;;;28.56;27.79;99120.71;425562;1285;142550;-49
2022/05/11 13:13:47;;;;;;;4.00;3.70;;;;;;;28.27;28.04;99121.86;426003;1286;141546;-52
2022/05/11 13:23:53;;;;;;;6.80;3.90;;;;;;;28.07;28.79;99115.33;425644;1285;140736;-53
2022/05/11 13:34:00;;;;;;;5.20;3.80;;;;;;;28.05;28.94;99108.95;426644;1287;140561;-46
2022/05/11 13:44:22;;;;;;;4.20;3.80;;;;;;;28.38;28.91;99096.70;426758;1285;141200;-48
2022/05/11 13:54:39;;;;;;;24.00;6.60;;;;;;;28.19;29.03;99082.89;433729;1285;144282;-48
2022/05/11 14:04:47;;;;;;;4.20;3.80;;;;;;;28.20;28.91;99073.80;426917;1287;144530;-47
2022/05/11 14:14:53;;;;;;;3.70;3.40;;;;;;;27.92;28.83;99062.66;434475;1285;141054;-54
2022/05/11 14:24:58;;;;;;;12.90;4.20;;;;;;;27.61;29.12;99050.36;441963;1284;141903;-52
2022/05/11 14:35:06;;;;;;;10.90;3.90;;;;;;;27.77;29.02;99039.75;442028;1285;140783;-50
2022/05/11 14:45:12;;;;;;;6.60;3.90;;;;;;;27.70;29.30;99030.83;440934;1286;142125;-49
2022/05/11 14:55:21;;;;;;;4.90;3.60;;;;;;;27.26;29.41;99026.84;442094;1285;141777;-51
2022/05/11 15:05:27;;;;;;;8.90;4.00;;;;;;;26.85;30.01;99012.09;427147;1287;141739;-49
2022/05/11 15:15:34;;;;;;;3.70;3.40;;;;;;;26.49;30.05;99015.00;437009;1285;141456;-52
2022/05/11 15:25:40;;;;;;;5.20;3.70;;;;;;;26.43;30.59;99004.48;442210;1284;142179;-49
2022/05/11 15:35:47;;;;;;;5.50;4.50;;;;;;;26.37;30.35;98999.55;438808;1284;141583;-51
2022/05/11 15:45:53;;;;;;;4.90;3.50;;;;;;;26.32;30.37;98990.71;441945;1285;144475;-52
2022/05/11 15:55:59;;;;;;;5.70;3.20;;;;;;;26.21;30.37;98984.36;434761;1285;143556;-48
2022/05/11 16:06:05;;;;;;;10.80;4.00;;;;;;;25.88;30.59;98985.58;425158;1285;146196;-48
2022/05/11 16:16:11;;;;;;;5.70;4.00;;;;;;;25.70;31.61;98982.23;434893;1285;144549;-46
2022/05/11 16:26:17;;;;;;;5.10;3.80;;;;;;;25.53;32.36;98987.39;431653;1285;141231;-49
2022/05/11 16:36:25;;;;;;;7.60;4.20;;;;;;;25.27;32.88;98983.38;436822;1285;141765;-49
2022/05/11 16:46:31;;;;;;;4.00;3.60;;;;;;;25.08;33.55;98981.75;433757;1285;141488;-65
2022/05/11 16:56:37;;;;;;;6.80;3.80;;;;;;;25.25;34.06;98978.92;433185;1285;141743;-66
2022/05/11 17:06:43;;;;;;;3.60;3.30;;;;;;;26.23;32.65;98968.52;427878;1285;142787;-62
2022/05/11 17:16:49;;;;;;;4.90;3.30;;;;;;;25.44;33.10;98974.95;425752;1285;141424;-65
2022/05/11 17:26:55;;;;;;;8.90;3.50;;;;;;;25.22;33.30;98976.16;425073;1287;142210;-65
2022/05/11 17:37:01;;;;;;;7.20;3.70;;;;;;;24.83;33.77;98973.41;429156;1285;142202;-67
2022/05/11 17:47:08;;;;;;;6.50;3.30;;;;;;;24.11;34.61;98972.64;426713;1285;145627;-55
2022/05/11 17:57:14;;;;;;;14.40;5.50;;;;;;;23.48;35.58;98975.66;427013;1286;187666;-56
2022/05/11 18:07:20;;;;;;;6.90;3.70;;;;;;;22.95;36.56;98976.52;427151;1285;202042;-55
2022/05/11 18:17:26;;;;;;;5.70;3.30;;;;;;;22.38;37.69;98981.59;426188;1285;142491;-56
2022/05/11 18:27:32;;;;;;;6.90;3.80;;;;;;;21.82;38.59;98983.91;428036;1285;142981;-55
2022/05/11 18:37:38;;;;;;;6.70;4.60;;;;;;;21.39;39.57;98983.19;427565;1285;144946;-55
2022/05/11 18:47:44;;;;;;;7.00;4.80;;;;;;;20.95;40.38;98988.34;428481;1287;141054;-53
2022/05/11 18:57:54;;;;;;;10.20;5.20;;;;;;;20.49;41.69;98991.27;425646;1287;142664;-55
2022/05/11 19:08:02;;;;;;;16.50;7.30;;;;;;;20.06;42.80;98997.02;426741;1287;151532;-56
2022/05/11 19:18:08;;;;;;;9.80;5.40;;;;;;;19.64;44.02;98999.02;425693;1287;140989;-54
2022/05/11 19:28:15;;;;;;;8.10;5.70;;;;;;;19.22;45.08;99000.39;427286;1287;142556;-66
2022/05/11 19:38:23;;;;;;;14.50;6.60;;;;;;;18.86;46.22;98992.23;439883;1286;146031;-56
2022/05/11 19:48:30;;;;;;;12.40;6.90;;;;;;;18.58;47.12;98986.13;441375;1287;141269;-57
2022/05/11 19:58:36;;;;;;;10.50;6.50;;;;;;;18.32;48.00;98980.10;442029;1286;144663;-56
2022/05/11 20:08:43;;;;;;;13.10;7.00;;;;;;;18.12;48.51;98976.80;433640;1286;142465;-56
2022/05/11 20:18:49;;;;;;;8.40;6.40;;;;;;;18.10;49.06;98974.77;427322;1286;141746;-55
2022/05/11 20:28:56;;;;;;;7.50;6.20;;;;;;;18.29;49.25;98964.80;427342;1287;147601;-57
2022/05/11 20:39:02;;;;;;;7.70;6.80;;;;;;;18.15;49.23;98962.36;426650;1286;142357;-64
2022/05/11 20:49:08;;;;;;;12.00;7.40;;;;;;;17.83;49.86;98958.38;426973;1286;141194;-57
2022/05/11 20:59:16;;;;;;;8.30;6.60;;;;;;;17.68;50.55;98952.73;426478;1287;142249;-59
2022/05/11 21:09:22;;;;;;;8.70;7.20;;;;;;;17.83;51.06;98948.14;426295;1287;143139;-60
2022/05/11 21:19:27;;;;;;;11.30;5.80;;;;;;;18.00;50.79;98945.50;427332;1286;141826;-50
2022/05/11 21:29:34;;;;;;;7.40;5.80;;;;;;;18.21;50.27;98938.23;426793;1287;140709;-48
2022/05/11 21:39:40;;;;;;;6.80;5.60;;;;;;;18.02;50.17;98929.70;425696;1287;542517;-48
2022/05/11 21:49:46;;;;;;;7.20;6.40;;;;;;;17.86;50.58;98925.40;427353;1285;144983;-44
2022/05/11 21:59:55;;;;;;;7.40;6.30;;;;;;;17.69;51.00;98913.35;427190;1287;141578;-46
2022/05/11 22:10:01;;;;;;;8.80;5.70;;;;;;;17.64;51.29;98904.80;427040;1287;206286;-45
2022/05/11 22:20:09;;;;;;;6.90;5.90;;;;;;;17.68;51.46;98894.33;426585;1285;141290;-49
2022/05/11 22:30:16;;;;;;;;;;;;;;;17.71;51.41;98895.44;427088;1285;141635;-47
2022/05/11 22:40:22;;;;;;;6.80;5.60;;;;;;;17.63;51.55;98889.80;427606;1286;129193;-49
2022/05/11 22:50:29;;;;;;;10.20;6.60;;;;;;;17.56;51.81;98889.71;427225;1285;143274;-50
2022/05/11 23:00:37;;;;;;;7.30;5.60;;;;;;;17.40;52.21;98883.25;426396;1285;141629;-49
2022/05/11 23:10:44;;;;;;;6.80;6.20;;;;;;;17.30;52.27;98876.15;425840;1286;141828;-49
2022/05/11 23:20:53;;;;;;;7.40;5.90;;;;;;;17.23;52.52;98874.10;426193;1285;141366;-52
2022/05/11 23:30:59;;;;;;;5.90;5.40;;;;;;;17.14;52.71;98871.02;425998;1286;141931;-52
2022/05/11 23:41:05;;;;;;;6.10;5.50;;;;;;;17.05;52.91;98858.66;425187;1287;143354;-47
2022/05/11 23:51:11;;;;;;;6.20;5.70;;;;;;;16.95;52.98;98855.90;427178;1285;141443;-50
